createdAt,value
2017-07-10T00:01:36.565Z,3.50
2017-07-10T00:04:04.122Z,3.45
2017-07-10T00:06:31.844Z,5.78
2017-07-10T00:17:38.133Z,3.62
2017-07-10T00:20:06.448Z,3.17
2017-07-10T00:22:34.004Z,6.95
2017-07-10T00:25:01.587Z,4.57
2017-07-10T00:27:29.136Z,4.10
2017-07-10T00:29:56.758Z,5.30
2017-07-10T00:32:24.369Z,6.18
2017-07-10T00:34:51.933Z,3.28
2017-07-10T00:37:19.515Z,3.37
2017-07-10T00:39:47.160Z,3.33
2017-07-10T00:42:14.716Z,3.83
2017-07-10T00:44:42.282Z,3.35
2017-07-10T00:47:10.643Z,3.53
2017-07-10T00:49:38.192Z,2.75
2017-07-10T00:52:05.752Z,3.55
2017-07-10T00:54:33.645Z,15.68
2017-07-10T00:57:01.201Z,5.45
2017-07-10T00:59:28.773Z,3.12
2017-07-10T01:01:57.334Z,6.72
2017-07-10T01:04:24.896Z,3.87
2017-07-10T01:06:52.451Z,4.35
2017-07-10T01:09:20.189Z,4.20
2017-07-10T01:11:47.748Z,3.30
2017-07-10T01:14:15.300Z,3.60
2017-07-10T01:16:43.020Z,7.70
2017-07-10T01:19:11.338Z,4.57
2017-07-10T01:21:38.911Z,3.67
2017-07-10T01:24:06.804Z,3.40
2017-07-10T01:26:34.360Z,4.03
2017-07-10T01:29:01.919Z,3.00
2017-07-10T01:31:29.634Z,2.45
2017-07-10T01:33:57.190Z,5.85
2017-07-10T01:36:24.744Z,6.37
2017-07-10T01:38:52.482Z,3.15
2017-07-10T01:41:20.055Z,6.22
2017-07-10T01:43:48.375Z,6.53
2017-07-10T01:46:16.103Z,3.60
2017-07-10T01:48:43.667Z,3.62
2017-07-10T01:51:11.233Z,3.60
2017-07-10T01:53:38.989Z,3.75
2017-07-10T01:56:06.544Z,3.92
2017-07-10T01:58:34.110Z,3.03
2017-07-10T02:01:01.874Z,4.30
2017-07-10T02:03:29.420Z,3.87
2017-07-10T02:05:56.979Z,6.37
2017-07-10T02:08:24.591Z,4.22
2017-07-10T02:10:52.168Z,5.85
2017-07-10T02:13:19.726Z,5.50
2017-07-10T02:15:47.468Z,5.90
2017-07-10T02:18:15.034Z,3.62
2017-07-10T02:20:42.586Z,3.60
2017-07-10T02:23:10.309Z,8.70
2017-07-10T02:25:37.868Z,3.50
2017-07-10T02:28:05.422Z,3.85
2017-07-10T02:30:33.186Z,4.07
2017-07-10T02:33:00.737Z,3.25
2017-07-10T02:35:29.051Z,5.95
2017-07-10T02:37:56.778Z,3.17
2017-07-10T02:40:26.867Z,4.35
2017-07-10T02:42:54.427Z,3.08
2017-07-10T02:45:22.055Z,5.10
2017-07-10T02:47:49.611Z,3.58
2017-07-10T02:50:17.197Z,5.78
2017-07-10T02:52:45.073Z,3.17
2017-07-10T02:55:12.637Z,3.42
2017-07-10T02:57:40.194Z,3.15
2017-07-10T03:00:07.937Z,8.75
2017-07-10T03:02:36.469Z,6.32
2017-07-10T03:05:04.801Z,7.18
2017-07-10T03:07:33.301Z,4.43
2017-07-10T03:10:00.877Z,3.53
2017-07-10T03:12:29.212Z,3.90
2017-07-10T03:14:56.805Z,3.75
2017-07-10T03:17:25.187Z,4.62
2017-07-10T03:19:53.535Z,3.65
2017-07-10T03:22:21.270Z,9.48
2017-07-10T03:24:48.844Z,4.75
2017-07-10T03:27:16.425Z,6.15
2017-07-10T03:29:44.015Z,3.95
2017-07-10T03:32:11.598Z,3.65
2017-07-10T03:34:39.165Z,3.72
2017-07-10T03:37:06.901Z,3.97
2017-07-10T03:39:34.487Z,8.45
2017-07-10T03:42:02.060Z,5.47
2017-07-10T03:44:29.679Z,4.93
2017-07-10T03:46:57.261Z,4.20
2017-07-10T03:49:24.852Z,5.00
2017-07-10T03:51:52.462Z,3.25
2017-07-10T03:54:20.052Z,8.55
2017-07-10T03:56:47.621Z,9.25
2017-07-10T03:59:15.248Z,4.20
2017-07-10T04:01:42.829Z,3.78
2017-07-10T04:04:10.405Z,5.80
2017-07-10T04:06:38.144Z,4.05
2017-07-10T04:09:05.704Z,4.20
2017-07-10T04:11:33.273Z,7.37
2017-07-10T04:14:00.941Z,4.97
2017-07-10T04:16:28.488Z,4.03
2017-07-10T04:18:56.038Z,4.57
2017-07-10T04:21:23.765Z,4.53
2017-07-10T04:23:51.352Z,4.70
2017-07-10T04:26:18.897Z,4.43
2017-07-10T04:28:46.509Z,3.62
2017-07-10T04:31:14.070Z,3.60
2017-07-10T04:33:41.729Z,4.37
2017-07-10T04:36:09.625Z,4.60
2017-07-10T04:38:37.177Z,6.55
2017-07-10T04:41:04.958Z,7.40
2017-07-10T04:43:32.850Z,5.10
2017-07-10T04:46:00.416Z,4.80
2017-07-10T04:48:27.963Z,4.45
2017-07-10T04:50:55.730Z,4.20
2017-07-10T04:53:24.049Z,5.18
2017-07-10T04:55:53.577Z,4.75
2017-07-10T04:58:21.164Z,4.97
2017-07-10T05:00:49.496Z,4.62
2017-07-10T05:03:17.071Z,4.45
2017-07-10T05:05:44.855Z,6.65
2017-07-10T05:08:12.428Z,14.15
2017-07-10T05:10:39.996Z,6.28
2017-07-10T05:13:08.156Z,5.00
2017-07-10T05:15:36.472Z,7.30
2017-07-10T05:18:04.019Z,4.40
2017-07-10T05:20:32.016Z,5.35
2017-07-10T05:22:59.559Z,6.82
2017-07-10T05:25:27.121Z,6.35
2017-07-10T05:27:54.717Z,5.68
2017-07-10T05:30:22.755Z,4.07
2017-07-10T05:32:50.336Z,4.95
2017-07-10T05:35:18.013Z,4.45
2017-07-10T05:37:45.576Z,5.95
2017-07-10T05:40:13.916Z,6.03
2017-07-10T05:42:41.814Z,5.40
2017-07-10T05:45:09.381Z,8.93
2017-07-10T05:47:37.723Z,4.72
2017-07-10T05:50:05.325Z,5.87
2017-07-10T05:52:33.652Z,8.25
2017-07-10T05:55:01.230Z,7.12
2017-07-10T05:57:28.828Z,3.85
2017-07-10T05:59:57.162Z,5.12
2017-07-10T06:02:24.734Z,6.03
2017-07-10T06:04:52.517Z,4.22
2017-07-10T06:07:20.866Z,6.12
2017-07-10T06:09:48.433Z,5.75
2017-07-10T06:12:16.048Z,7.87
2017-07-10T06:14:43.608Z,5.03
2017-07-10T06:17:11.168Z,7.87
2017-07-10T06:19:38.752Z,4.62
2017-07-10T06:22:06.311Z,6.55
2017-07-10T06:24:33.871Z,5.78
2017-07-10T06:27:01.659Z,9.40
2017-07-10T06:29:29.248Z,4.75
2017-07-10T06:31:56.807Z,4.55
2017-07-10T06:34:25.269Z,4.18
2017-07-10T06:36:52.825Z,7.37
2017-07-10T06:39:20.380Z,4.40
2017-07-10T06:41:48.001Z,6.33
2017-07-10T06:44:15.558Z,4.77
2017-07-10T06:46:43.170Z,5.70
2017-07-10T06:49:10.866Z,4.78
2017-07-10T06:51:38.416Z,5.28
2017-07-10T06:54:05.984Z,4.82
2017-07-10T06:56:33.916Z,5.80
2017-07-10T06:59:02.246Z,6.70
2017-07-10T07:01:29.805Z,4.33
2017-07-10T07:03:57.656Z,4.80
2017-07-10T07:06:25.213Z,7.67
2017-07-10T07:08:52.769Z,6.25
2017-07-10T07:11:20.388Z,5.78
2017-07-10T07:13:47.948Z,5.18
2017-07-10T07:16:15.508Z,5.17
2017-07-10T07:18:43.207Z,7.07
2017-07-10T07:21:10.764Z,6.00
2017-07-10T07:23:38.328Z,5.50
2017-07-10T07:26:05.946Z,5.50
2017-07-10T07:28:33.512Z,5.53
2017-07-10T07:31:01.075Z,5.45
2017-07-10T07:33:29.453Z,5.90
2017-07-10T07:35:57.785Z,5.12
2017-07-10T07:38:25.343Z,5.95
2017-07-10T07:40:53.232Z,5.37
2017-07-10T07:43:20.793Z,5.93
2017-07-10T07:45:48.357Z,6.00
2017-07-10T07:48:15.977Z,5.43
2017-07-10T07:50:44.384Z,5.62
2017-07-10T07:53:12.014Z,5.93
2017-07-10T07:55:39.769Z,5.18
2017-07-10T07:58:07.336Z,5.40
2017-07-10T08:00:34.886Z,8.45
2017-07-10T08:03:02.480Z,5.95
2017-07-10T08:05:30.046Z,5.83
2017-07-10T08:07:57.614Z,5.80
2017-07-10T08:10:25.218Z,5.32
2017-07-10T08:12:53.656Z,5.55
2017-07-10T08:15:21.207Z,7.97
2017-07-10T08:17:48.989Z,4.75
2017-07-10T08:20:16.549Z,8.40
2017-07-10T08:22:44.121Z,4.53
2017-07-10T08:25:12.684Z,5.40
2017-07-10T08:27:40.270Z,5.68
2017-07-10T08:30:08.592Z,6.10
2017-07-10T08:32:36.501Z,6.45
2017-07-10T08:35:04.065Z,5.37
2017-07-10T08:37:32.388Z,7.20
2017-07-10T08:40:00.096Z,4.93
2017-07-10T08:42:28.539Z,5.97
2017-07-10T08:44:56.132Z,6.05
2017-07-10T08:47:23.814Z,9.00
2017-07-10T08:49:52.136Z,7.45
2017-07-10T08:52:19.687Z,6.05
2017-07-10T08:54:47.369Z,7.07
2017-07-10T08:57:14.923Z,8.05
2017-07-10T08:59:42.500Z,8.40
2017-07-10T09:02:10.110Z,7.93
2017-07-10T09:04:37.671Z,5.78
2017-07-10T09:07:05.231Z,6.28
2017-07-10T09:09:33.164Z,6.37
2017-07-10T09:12:01.483Z,6.47
2017-07-10T09:14:29.040Z,5.93
2017-07-10T09:16:56.873Z,11.70
2017-07-10T09:19:25.201Z,7.35
2017-07-10T09:21:52.784Z,6.85
2017-07-10T09:24:20.474Z,6.45
2017-07-10T09:26:48.800Z,6.28
2017-07-10T09:29:16.359Z,6.60
2017-07-10T09:31:44.267Z,6.47
2017-07-10T09:34:11.836Z,6.45
2017-07-10T09:36:40.156Z,8.30
2017-07-10T09:39:07.781Z,8.15
2017-07-10T09:41:36.108Z,7.87
2017-07-10T09:44:03.677Z,7.75
2017-07-10T09:46:31.392Z,7.87
2017-07-10T09:48:59.009Z,7.05
2017-07-10T09:51:26.569Z,8.70
2017-07-10T09:53:54.344Z,10.45
2017-07-10T09:56:21.897Z,9.98
2017-07-10T09:58:49.455Z,9.50
2017-07-10T10:01:17.157Z,10.52
2017-07-10T10:03:44.840Z,10.60
2017-07-10T10:06:12.440Z,9.60
2017-07-10T10:08:40.061Z,11.07
2017-07-10T10:11:07.632Z,11.57
2017-07-10T10:13:35.242Z,11.88
2017-07-10T10:16:03.803Z,10.43
2017-07-10T10:18:31.441Z,10.18
2017-07-10T10:20:58.998Z,9.70
2017-07-10T10:23:26.797Z,10.13
2017-07-10T10:25:54.359Z,11.32
2017-07-10T10:28:22.716Z,10.02
2017-07-10T10:30:50.327Z,9.60
2017-07-10T10:33:17.899Z,9.40
2017-07-10T10:35:45.457Z,9.77
2017-07-10T10:38:13.376Z,10.68
2017-07-10T10:40:40.949Z,10.07
2017-07-10T10:43:09.282Z,10.48
2017-07-10T10:45:37.681Z,10.50
2017-07-10T10:48:05.257Z,10.75
2017-07-10T10:50:32.816Z,9.85
2017-07-10T10:53:00.531Z,9.05
2017-07-10T10:55:28.114Z,9.73
2017-07-10T10:57:55.678Z,10.10
2017-07-10T11:00:23.302Z,11.05
2017-07-10T11:02:50.869Z,10.48
2017-07-10T11:05:18.429Z,9.45
2017-07-10T11:07:46.041Z,10.43
2017-07-10T11:10:14.371Z,9.85
2017-07-10T11:12:41.956Z,10.40
2017-07-10T11:15:09.828Z,10.75
2017-07-10T11:17:37.426Z,10.77
2017-07-10T11:20:05.012Z,10.50
2017-07-10T11:22:32.967Z,12.35
2017-07-10T11:25:00.571Z,10.20
2017-07-10T11:27:28.244Z,10.82
2017-07-10T11:29:55.988Z,11.90
2017-07-10T11:32:23.888Z,10.05
2017-07-10T11:34:52.215Z,11.77
2017-07-10T11:37:19.910Z,12.25
2017-07-10T11:39:47.473Z,11.38
2017-07-10T11:42:15.040Z,11.38
2017-07-10T11:44:42.948Z,10.45
2017-07-10T11:47:10.520Z,11.52
2017-07-10T11:49:38.090Z,12.75
2017-07-10T11:52:06.097Z,10.82
2017-07-10T11:54:33.651Z,14.23
2017-07-10T11:57:01.206Z,12.15
2017-07-10T11:59:28.820Z,11.77
2017-07-10T12:01:56.384Z,12.10
2017-07-10T12:04:23.949Z,12.52
2017-07-10T12:06:51.568Z,12.15
2017-07-10T12:09:20.716Z,12.50
2017-07-10T12:11:48.281Z,12.85
2017-07-10T12:14:16.036Z,13.02
2017-07-10T12:16:43.657Z,13.68
2017-07-10T12:19:11.226Z,13.00
2017-07-10T12:21:38.835Z,12.55
2017-07-10T12:24:06.405Z,15.20
2017-07-10T12:26:35.581Z,14.77
2017-07-10T12:29:03.320Z,13.48
2017-07-10T12:31:31.752Z,13.98
2017-07-10T12:33:59.453Z,12.55
2017-07-10T12:36:27.241Z,13.57
2017-07-10T12:38:55.603Z,14.55
2017-07-10T12:41:23.175Z,12.88
2017-07-10T12:43:50.920Z,15.18
2017-07-10T12:46:18.623Z,14.02
2017-07-10T12:48:46.277Z,14.93
2017-07-10T12:51:13.983Z,13.85
2017-07-10T12:53:42.330Z,14.10
2017-07-10T12:56:09.894Z,13.50
2017-07-10T12:58:37.692Z,12.82
2017-07-10T13:01:05.270Z,13.02
2017-07-10T13:03:32.840Z,12.98
2017-07-10T13:06:00.729Z,14.85
2017-07-10T13:08:28.343Z,11.20
2017-07-10T13:10:55.914Z,11.57
2017-07-10T13:13:23.682Z,10.98
2017-07-10T13:15:51.280Z,10.13
2017-07-10T13:18:18.852Z,9.65
2017-07-10T13:20:46.934Z,10.65
2017-07-10T13:23:15.290Z,8.93
2017-07-10T13:25:42.862Z,11.05
2017-07-10T13:28:10.599Z,11.35
2017-07-10T13:30:38.161Z,10.02
2017-07-10T13:33:05.729Z,11.48
2017-07-10T13:35:33.495Z,10.15
2017-07-10T13:38:01.085Z,9.18
2017-07-10T13:40:29.427Z,10.70
2017-07-10T13:42:57.226Z,9.20
2017-07-10T13:45:24.794Z,10.48
2017-07-10T13:47:53.131Z,10.60
2017-07-10T13:50:20.920Z,10.88
2017-07-10T13:52:48.491Z,10.90
2017-07-10T13:55:16.066Z,11.23
2017-07-10T13:57:43.973Z,10.38
2017-07-10T14:00:11.608Z,12.50
2017-07-10T14:02:39.176Z,11.10
2017-07-10T14:05:07.668Z,10.55
2017-07-10T14:07:35.223Z,9.30
2017-07-10T14:10:02.785Z,10.18
2017-07-10T14:12:30.704Z,9.75
2017-07-10T14:14:59.023Z,9.88
2017-07-10T14:17:26.581Z,11.00
2017-07-10T14:19:54.176Z,10.57
2017-07-10T14:22:21.735Z,9.27
2017-07-10T14:24:49.297Z,10.05
2017-07-10T14:27:16.912Z,9.15
2017-07-10T14:29:44.456Z,10.18
2017-07-10T14:32:12.134Z,10.00
2017-07-10T14:34:40.565Z,10.35
2017-07-10T14:37:08.129Z,10.18
2017-07-10T14:39:35.689Z,10.07
2017-07-10T14:42:04.052Z,9.88
2017-07-10T14:44:31.609Z,9.82
2017-07-10T14:46:59.162Z,10.70
2017-07-10T14:49:26.793Z,8.32
2017-07-10T14:51:54.361Z,8.35
2017-07-10T14:54:21.915Z,10.93
2017-07-10T14:56:49.629Z,9.75
2017-07-10T14:59:17.188Z,12.07
2017-07-10T15:01:45.517Z,9.93
2017-07-10T15:04:13.425Z,10.43
2017-07-10T15:06:41.026Z,11.20
2017-07-10T15:09:08.580Z,10.85
2017-07-10T15:11:36.508Z,10.73
2017-07-10T15:14:04.070Z,11.40
2017-07-10T15:16:31.725Z,11.27
2017-07-10T15:18:59.413Z,11.02
2017-07-10T15:21:27.782Z,8.90
2017-07-10T15:23:56.107Z,10.65
2017-07-10T15:26:23.860Z,10.07
2017-07-10T15:28:51.434Z,10.25
2017-07-10T15:31:19.013Z,10.57
2017-07-10T15:33:46.814Z,9.07
2017-07-10T15:36:15.138Z,9.80
2017-07-10T15:38:42.724Z,9.98
2017-07-10T15:41:10.344Z,9.93
2017-07-10T15:43:37.915Z,9.30
2017-07-10T15:46:05.508Z,8.75
2017-07-10T15:48:33.121Z,9.45
2017-07-10T15:51:00.699Z,9.52
2017-07-10T15:53:28.288Z,10.57
2017-07-10T15:55:56.180Z,11.23
2017-07-10T15:58:23.798Z,11.43
2017-07-10T16:00:51.400Z,10.60
2017-07-10T16:03:19.035Z,11.30
2017-07-10T16:05:46.597Z,11.43
2017-07-10T16:08:14.170Z,10.80
2017-07-10T16:10:41.867Z,9.95
2017-07-10T16:13:09.451Z,10.13
2017-07-10T16:15:37.030Z,8.75
2017-07-10T16:18:04.643Z,9.75
2017-07-10T16:20:32.272Z,7.95
2017-07-10T16:23:00.591Z,9.23
2017-07-10T16:25:28.376Z,10.70
2017-07-10T16:27:55.974Z,9.15
2017-07-10T16:30:24.336Z,11.20
2017-07-10T16:32:52.350Z,9.90
2017-07-10T16:35:19.937Z,10.60
2017-07-10T16:37:47.507Z,9.10
2017-07-10T16:40:15.131Z,9.75
2017-07-10T16:42:42.702Z,10.40
2017-07-10T16:45:10.301Z,9.25
2017-07-10T16:47:38.038Z,8.95
2017-07-10T16:50:05.616Z,9.73
2017-07-10T16:52:33.190Z,9.65
2017-07-10T16:55:01.597Z,10.68
2017-07-10T16:57:29.181Z,8.65
2017-07-10T16:59:56.743Z,9.23
2017-07-10T17:02:24.543Z,8.57
2017-07-10T17:04:52.116Z,9.85
2017-07-10T17:07:20.681Z,8.32
2017-07-10T17:09:48.529Z,8.50
2017-07-10T17:12:16.113Z,9.38
2017-07-10T17:14:43.697Z,8.60
2017-07-10T17:17:12.385Z,8.45
2017-07-10T17:19:40.722Z,8.85
2017-07-10T17:22:08.316Z,8.32
2017-07-10T17:24:36.738Z,9.90
2017-07-10T17:27:04.316Z,8.70
2017-07-10T17:29:31.893Z,8.00
2017-07-10T17:31:59.537Z,9.27
2017-07-10T17:34:27.123Z,8.98
2017-07-10T17:36:54.715Z,8.85
2017-07-10T17:39:22.440Z,9.05
2017-07-10T17:41:50.010Z,8.50
2017-07-10T17:44:18.365Z,8.50
2017-07-10T17:46:46.086Z,8.85
2017-07-10T17:49:13.656Z,7.95
2017-07-10T17:51:41.228Z,8.98
2017-07-10T17:54:08.837Z,7.43
2017-07-10T17:56:36.428Z,9.23
2017-07-10T17:59:04.037Z,8.25
2017-07-10T18:01:31.816Z,8.90
2017-07-10T18:04:00.148Z,6.93
2017-07-10T18:06:27.723Z,8.48
2017-07-10T18:08:55.497Z,6.60
2017-07-10T18:11:23.134Z,6.72
2017-07-10T18:13:50.701Z,6.90
2017-07-10T18:16:18.405Z,6.85
2017-07-10T18:18:46.019Z,7.85
2017-07-10T18:21:13.584Z,6.87
2017-07-10T18:23:41.477Z,7.25
2017-07-10T18:26:09.406Z,8.10
2017-07-10T18:28:36.964Z,7.62
2017-07-10T18:31:04.737Z,8.82
2017-07-10T18:33:32.301Z,7.95
2017-07-10T18:36:01.794Z,7.30
2017-07-10T18:38:29.798Z,8.20
2017-07-10T18:40:57.373Z,8.05
2017-07-10T18:43:25.759Z,8.30
2017-07-10T18:45:54.436Z,7.90
2017-07-10T18:48:22.809Z,8.50
2017-07-10T18:50:50.372Z,9.50
2017-07-10T18:53:18.934Z,8.95
2017-07-10T18:55:46.532Z,12.70
2017-07-10T18:58:14.105Z,9.35
2017-07-10T19:00:41.734Z,10.23
2017-07-10T19:03:10.160Z,9.20
2017-07-10T19:05:37.722Z,9.85
2017-07-10T19:08:05.353Z,10.57
2017-07-10T19:10:32.959Z,10.98
2017-07-10T19:13:00.524Z,12.00
2017-07-10T19:15:28.136Z,10.43
2017-07-10T19:17:55.714Z,11.32
2017-07-10T19:20:23.302Z,10.70
2017-07-10T19:22:51.068Z,11.10
2017-07-10T19:25:20.411Z,10.73
2017-07-10T19:27:48.023Z,9.90
2017-07-10T19:30:15.972Z,10.13
2017-07-10T19:32:43.613Z,10.32
2017-07-10T19:35:11.187Z,8.60
2017-07-10T19:37:38.928Z,8.43
2017-07-10T19:40:06.511Z,9.30
2017-07-10T19:42:34.091Z,7.47
2017-07-10T19:45:02.098Z,8.25
2017-07-10T19:47:30.432Z,8.70
2017-07-10T19:49:57.998Z,8.40
2017-07-10T19:52:25.749Z,10.27
2017-07-10T19:54:53.312Z,8.18
2017-07-10T19:57:20.871Z,7.57
2017-07-10T19:59:49.304Z,8.10
2017-07-10T20:02:17.666Z,7.60
2017-07-10T20:04:45.240Z,7.62
2017-07-10T20:07:13.001Z,9.25
2017-07-10T20:09:41.340Z,7.18
2017-07-10T20:12:08.915Z,8.15
2017-07-10T20:14:36.661Z,8.40
2017-07-10T20:17:06.827Z,10.02
2017-07-10T20:19:35.152Z,8.45
2017-07-10T20:22:03.050Z,9.50
2017-07-10T20:24:30.611Z,9.30
2017-07-10T20:26:58.169Z,10.05
2017-07-10T20:29:26.960Z,10.93
2017-07-10T20:31:54.531Z,10.85
2017-07-10T20:34:22.907Z,9.88
2017-07-10T20:36:51.292Z,11.35
2017-07-10T20:39:18.868Z,11.02
2017-07-10T20:41:46.431Z,11.48
2017-07-10T20:44:14.125Z,11.70
2017-07-10T20:46:41.697Z,11.55
2017-07-10T20:49:09.272Z,12.82
2017-07-10T20:51:36.872Z,12.75
2017-07-10T20:54:04.437Z,13.98
2017-07-10T20:56:32.024Z,13.82
2017-07-10T20:58:59.638Z,12.35
2017-07-10T21:01:28.684Z,12.25
2017-07-10T21:03:56.252Z,13.32
2017-07-10T21:06:23.896Z,11.85
2017-07-10T21:08:51.469Z,14.85
2017-07-10T21:11:19.032Z,13.93
2017-07-10T21:13:46.921Z,15.07
2017-07-10T21:16:14.509Z,13.15
2017-07-10T21:18:42.073Z,14.05
2017-07-10T21:21:09.766Z,12.48
2017-07-10T21:23:37.356Z,12.75
2017-07-10T21:26:04.932Z,13.45
2017-07-10T21:28:33.413Z,13.15
2017-07-10T21:31:01.748Z,14.00
2017-07-10T21:33:29.308Z,14.95
2017-07-10T21:35:57.754Z,15.57
2017-07-10T21:38:25.338Z,16.15
2017-07-10T21:40:52.913Z,16.45
2017-07-10T21:43:20.602Z,15.82
2017-07-10T21:45:48.167Z,14.80
2017-07-10T21:48:15.732Z,18.37
2017-07-10T21:50:44.956Z,14.65
2017-07-10T21:53:12.542Z,16.42
2017-07-10T21:55:40.120Z,18.10
2017-07-10T21:58:07.867Z,18.23
2017-07-10T22:00:35.438Z,16.73
2017-07-10T22:03:03.009Z,18.33
2017-07-10T22:05:30.834Z,20.77
2017-07-10T22:07:59.344Z,18.23
2017-07-10T22:10:26.995Z,21.62
2017-07-10T22:12:54.906Z,20.58
2017-07-10T22:15:24.252Z,19.50
2017-07-10T22:17:51.824Z,21.33
2017-07-10T22:20:19.593Z,21.05
2017-07-10T22:22:47.163Z,21.00
2017-07-10T22:25:14.755Z,24.67
2017-07-10T22:27:42.396Z,18.83
2017-07-10T22:30:09.967Z,21.77
2017-07-10T22:32:38.302Z,21.77
2017-07-10T22:35:06.040Z,27.13
2017-07-10T22:37:33.598Z,20.33
2017-07-10T22:40:01.197Z,20.50
2017-07-10T22:42:29.027Z,25.85
2017-07-10T22:44:56.599Z,20.10
2017-07-10T22:47:24.156Z,26.35
2017-07-10T22:49:52.164Z,20.60
2017-07-10T22:52:19.725Z,21.60
2017-07-10T22:54:47.313Z,22.20
2017-07-10T22:57:15.069Z,24.25
2017-07-10T22:59:43.396Z,26.30
2017-07-10T23:02:10.984Z,28.50
2017-07-10T23:04:38.701Z,23.83
2017-07-10T23:07:06.265Z,27.00
2017-07-10T23:09:33.829Z,27.05
2017-07-10T23:12:01.415Z,26.10
2017-07-10T23:14:28.980Z,27.33
2017-07-10T23:16:56.549Z,25.70
2017-07-10T23:19:24.167Z,25.55
2017-07-10T23:21:51.779Z,22.90
2017-07-10T23:24:19.434Z,25.30
2017-07-10T23:26:47.041Z,25.98
2017-07-10T23:29:14.600Z,28.62
2017-07-10T23:31:42.217Z,33.08
2017-07-10T23:34:09.805Z,31.37
2017-07-10T23:36:37.369Z,26.70
2017-07-10T23:39:04.940Z,35.58
2017-07-10T23:41:32.688Z,28.60
2017-07-10T23:44:01.076Z,28.48
2017-07-10T23:46:28.649Z,32.83
2017-07-10T23:48:56.667Z,33.83
2017-07-10T23:51:24.238Z,36.20
2017-07-10T23:53:51.799Z,30.35
2017-07-10T23:56:20.349Z,29.48
2017-07-10T23:58:47.917Z,27.02
